createdAt,value
2018-04-09T00:00:53.120Z,95346.39
2018-04-09T00:03:19.509Z,95340.77
2018-04-09T00:05:45.829Z,95337.53
2018-04-09T00:08:12.198Z,95338.73
2018-04-09T00:10:38.591Z,95333.05
2018-04-09T00:13:04.913Z,95331.31
2018-04-09T00:15:31.226Z,95327.41
2018-04-09T00:17:57.618Z,95336.32
2018-04-09T00:20:24.037Z,95334.83
2018-04-09T00:22:50.361Z,95325.91
2018-04-09T00:25:16.747Z,95328.44
2018-04-09T00:27:43.181Z,95327.41
2018-04-09T00:30:09.602Z,95328.78
2018-04-09T00:32:36.001Z,95318.20
2018-04-09T00:35:02.403Z,95317.62
2018-04-09T00:37:28.809Z,95317.62
2018-04-09T00:39:55.159Z,95308.38
2018-04-09T00:42:21.539Z,95317.38
2018-04-09T00:44:47.922Z,95303.08
2018-04-09T00:47:14.301Z,95305.40
2018-04-09T00:49:40.718Z,95300.30
2018-04-09T00:52:07.038Z,95293.95
2018-04-09T00:54:33.389Z,95284.01
2018-04-09T00:56:59.715Z,95292.38
2018-04-09T00:59:26.070Z,95294.86
2018-04-09T01:01:52.421Z,95293.83
2018-04-09T01:04:18.814Z,95284.26
2018-04-09T01:06:45.198Z,95289.40
2018-04-09T01:09:11.556Z,95276.34
2018-04-09T01:11:37.917Z,95285.33
2018-04-09T01:14:04.336Z,95287.45
2018-04-09T01:16:30.681Z,95286.07
2018-04-09T01:18:57.012Z,95288.02
2018-04-09T01:21:23.324Z,95280.98
2018-04-09T01:23:49.744Z,95283.50
2018-04-09T01:26:16.077Z,95286.41
2018-04-09T01:28:42.398Z,95281.64
2018-04-09T01:31:08.798Z,95282.27
2018-04-09T01:33:35.201Z,95279.61
2018-04-09T01:36:01.547Z,95277.25
2018-04-09T01:38:27.938Z,95269.92
2018-04-09T01:40:54.306Z,95271.83
2018-04-09T01:43:20.665Z,95271.32
2018-04-09T01:45:47.099Z,95281.19
2018-04-09T01:48:13.538Z,95273.48
2018-04-09T01:50:39.882Z,95269.33
2018-04-09T01:53:06.201Z,95276.58
2018-04-09T01:55:32.542Z,95274.34
2018-04-09T01:57:58.932Z,95272.35
2018-04-09T02:00:25.274Z,95262.33
2018-04-09T02:02:51.647Z,95259.80
2018-04-09T02:05:17.977Z,95264.84
2018-04-09T02:07:44.310Z,95259.75
2018-04-09T02:10:10.688Z,95251.05
2018-04-09T02:12:37.037Z,95256.89
2018-04-09T02:15:03.478Z,95251.87
2018-04-09T02:17:29.921Z,95250.55
2018-04-09T02:19:56.297Z,95246.19
2018-04-09T02:22:22.778Z,95250.38
2018-04-09T02:24:49.169Z,95239.97
2018-04-09T02:27:15.521Z,95243.95
2018-04-09T02:29:41.949Z,95250.95
2018-04-09T02:32:08.282Z,95249.21
2018-04-09T02:34:34.635Z,95248.84
2018-04-09T02:37:01.119Z,95248.50
2018-04-09T02:39:27.459Z,95240.62
2018-04-09T02:41:53.859Z,95241.66
2018-04-09T02:44:20.276Z,95240.38
2018-04-09T02:46:46.612Z,95239.34
2018-04-09T02:49:12.962Z,95238.97
2018-04-09T02:51:39.541Z,95234.77
2018-04-09T02:54:05.870Z,95232.50
2018-04-09T02:56:32.205Z,95232.91
2018-04-09T02:58:58.593Z,95234.70
2018-04-09T03:01:25.022Z,95242.87
2018-04-09T03:03:51.350Z,95235.16
2018-04-09T03:06:17.674Z,95234.25
2018-04-09T03:08:44.044Z,95233.16
2018-04-09T03:11:10.438Z,95222.09
2018-04-09T03:13:36.879Z,95232.94
2018-04-09T03:16:03.318Z,95238.69
2018-04-09T03:18:29.647Z,95235.11
2018-04-09T03:20:55.977Z,95232.09
2018-04-09T03:23:22.355Z,95227.73
2018-04-09T03:25:48.695Z,95230.39
2018-04-09T03:28:15.013Z,95223.50
2018-04-09T03:30:41.378Z,95223.02
2018-04-09T03:33:07.747Z,95222.55
2018-04-09T03:35:34.082Z,95218.86
2018-04-09T03:38:00.396Z,95225.88
2018-04-09T03:40:26.732Z,95220.27
2018-04-09T03:42:53.129Z,95215.19
2018-04-09T03:45:19.471Z,95224.73
2018-04-09T03:47:45.869Z,95222.98
2018-04-09T03:50:12.244Z,95223.42
2018-04-09T03:52:38.589Z,95225.08
2018-04-09T03:55:04.915Z,95230.83
2018-04-09T03:57:31.287Z,95225.58
2018-04-09T03:59:57.613Z,95233.12
2018-04-09T04:02:23.992Z,95233.89
2018-04-09T04:04:50.377Z,95229.87
2018-04-09T04:07:16.729Z,95236.53
2018-04-09T04:09:43.096Z,95227.22
2018-04-09T04:12:09.586Z,95233.36
2018-04-09T04:14:35.928Z,95231.13
2018-04-09T04:17:02.554Z,95229.06
2018-04-09T04:19:28.976Z,95238.41
2018-04-09T04:21:55.299Z,95241.17
2018-04-09T04:24:21.665Z,95238.77
2018-04-09T04:26:48.206Z,95246.20
2018-04-09T04:29:14.568Z,95240.40
2018-04-09T04:31:40.888Z,95246.81
2018-04-09T04:34:07.245Z,95234.86
2018-04-09T04:36:33.573Z,95236.98
2018-04-09T04:38:59.994Z,95241.55
2018-04-09T04:41:26.333Z,95241.52
2018-04-09T04:43:52.749Z,95240.46
2018-04-09T04:46:19.151Z,95245.20
2018-04-09T04:48:45.564Z,95247.34
2018-04-09T04:51:11.879Z,95243.97
2018-04-09T04:53:38.259Z,95241.59
2018-04-09T04:56:04.615Z,95244.72
2018-04-09T04:58:30.948Z,95243.20
2018-04-09T05:00:57.355Z,95245.75
2018-04-09T05:03:23.774Z,95250.94
2018-04-09T05:05:50.124Z,95246.25
2018-04-09T05:08:16.525Z,95246.71
2018-04-09T05:10:42.872Z,95247.95
2018-04-09T05:13:09.223Z,95248.02
2018-04-09T05:15:35.543Z,95231.91
2018-04-09T05:18:02.015Z,95233.94
2018-04-09T05:20:28.470Z,95240.34
2018-04-09T05:22:54.856Z,95246.80
2018-04-09T05:25:21.227Z,95238.70
2018-04-09T05:27:47.620Z,95241.97
2018-04-09T05:30:13.968Z,95252.13
2018-04-09T05:32:40.358Z,95247.02
2018-04-09T05:35:06.697Z,95241.17
2018-04-09T05:37:33.065Z,95241.03
2018-04-09T05:39:59.426Z,95238.40
2018-04-09T05:42:25.749Z,95241.05
2018-04-09T05:44:52.159Z,95235.25
2018-04-09T05:47:18.514Z,95226.77
2018-04-09T05:49:44.866Z,95231.59
2018-04-09T05:52:11.251Z,95232.70
2018-04-09T05:54:37.603Z,95232.33
2018-04-09T05:57:03.948Z,95226.76
2018-04-09T05:59:30.332Z,95231.91
2018-04-09T06:01:56.645Z,95240.62
2018-04-09T06:04:23.021Z,95236.89
2018-04-09T06:06:49.350Z,95245.48
2018-04-09T06:09:15.749Z,95234.89
2018-04-09T06:11:42.097Z,95233.58
2018-04-09T06:14:08.560Z,95229.41
2018-04-09T06:16:34.882Z,95221.41
2018-04-09T06:19:01.261Z,95221.72
2018-04-09T06:21:27.603Z,95230.21
2018-04-09T06:23:53.948Z,95226.45
2018-04-09T06:26:20.288Z,95220.11
2018-04-09T06:28:46.655Z,95223.46
2018-04-09T06:31:13.030Z,95223.22
2018-04-09T06:33:39.373Z,95224.84
2018-04-09T06:36:05.705Z,95217.56
2018-04-09T06:38:32.130Z,95222.70
2018-04-09T06:40:58.506Z,95222.70
2018-04-09T06:43:24.861Z,95223.49
2018-04-09T06:45:51.195Z,95226.55
2018-04-09T06:48:17.526Z,95217.81
2018-04-09T06:50:43.952Z,95218.47
2018-04-09T06:53:10.318Z,95213.22
2018-04-09T06:55:36.650Z,95214.62
2018-04-09T06:58:03.038Z,95210.85
2018-04-09T07:00:29.357Z,95208.91
2018-04-09T07:02:55.729Z,95205.94
2018-04-09T07:05:22.102Z,95204.39
2018-04-09T07:07:48.504Z,95210.03
2018-04-09T07:10:14.874Z,95208.33
2018-04-09T07:12:41.252Z,95203.93
2018-04-09T07:15:07.584Z,95209.69
2018-04-09T07:17:33.963Z,95207.66
2018-04-09T07:20:00.420Z,95208.90
2018-04-09T07:22:26.771Z,95205.77
2018-04-09T07:24:53.121Z,95195.53
2018-04-09T07:27:19.437Z,95196.61
2018-04-09T07:29:45.757Z,95197.54
2018-04-09T07:32:12.098Z,95197.90
2018-04-09T07:34:38.582Z,95202.81
2018-04-09T07:37:04.902Z,95187.93
2018-04-09T07:39:31.267Z,95189.77
2018-04-09T07:41:57.648Z,95195.16
2018-04-09T07:44:23.991Z,95197.02
2018-04-09T07:46:50.411Z,95200.70
2018-04-09T07:49:16.737Z,95197.43
2018-04-09T07:51:43.124Z,95193.25
2018-04-09T07:54:09.534Z,95193.88
2018-04-09T07:56:35.926Z,95186.06
2018-04-09T07:59:02.277Z,95182.23
2018-04-09T08:01:28.622Z,95183.86
2018-04-09T08:03:54.941Z,95179.55
2018-04-09T08:06:21.322Z,95181.52
2018-04-09T08:08:47.681Z,95172.73
2018-04-09T08:11:14.046Z,95171.75
2018-04-09T08:13:40.504Z,95174.80
2018-04-09T08:16:06.857Z,95169.01
2018-04-09T08:18:33.315Z,95169.73
2018-04-09T08:20:59.646Z,95161.13
2018-04-09T08:23:26.018Z,95163.77
2018-04-09T08:25:52.365Z,95168.25
2018-04-09T08:28:18.768Z,95169.08
2018-04-09T08:30:45.114Z,95163.80
2018-04-09T08:33:11.430Z,95163.39
2018-04-09T08:35:37.839Z,95162.63
2018-04-09T08:38:04.174Z,95157.30
2018-04-09T08:40:31.518Z,95161.11
2018-04-09T08:42:57.839Z,95152.16
2018-04-09T08:45:24.175Z,95155.81
2018-04-09T08:47:50.564Z,95149.30
2018-04-09T08:50:16.946Z,95143.63
2018-04-09T08:52:43.338Z,95131.32
2018-04-09T08:55:09.750Z,95131.43
2018-04-09T08:57:36.122Z,95133.30
2018-04-09T09:00:02.460Z,95123.83
2018-04-09T09:02:28.887Z,95123.58
2018-04-09T09:04:55.222Z,95124.34
2018-04-09T09:07:21.643Z,95116.22
2018-04-09T09:09:47.981Z,95119.79
2018-04-09T09:12:14.317Z,95111.33
2018-04-09T09:14:40.690Z,95107.93
2018-04-09T09:17:07.009Z,95105.84
2018-04-09T09:19:33.401Z,95100.27
2018-04-09T09:21:59.749Z,95099.28
2018-04-09T09:24:26.107Z,95090.03
2018-04-09T09:26:52.469Z,95089.62
2018-04-09T09:29:18.877Z,95086.95
2018-04-09T09:31:45.267Z,95075.75
2018-04-09T09:34:11.610Z,95071.45
2018-04-09T09:36:37.965Z,95069.97
2018-04-09T09:39:04.341Z,95070.11
2018-04-09T09:41:30.717Z,95064.70
2018-04-09T09:43:57.059Z,95063.91
2018-04-09T09:46:23.379Z,95063.79
2018-04-09T09:48:49.752Z,95078.01
2018-04-09T09:51:16.120Z,95069.59
2018-04-09T09:53:42.467Z,95065.96
2018-04-09T09:56:08.878Z,95061.37
2018-04-09T09:58:35.217Z,95059.73
2018-04-09T10:01:01.621Z,95053.28
2018-04-09T10:03:27.947Z,95049.60
2018-04-09T10:05:54.291Z,95049.41
2018-04-09T10:08:20.644Z,95039.34
2018-04-09T10:10:47.009Z,95036.05
2018-04-09T10:13:13.469Z,95034.23
2018-04-09T10:15:39.890Z,95037.91
2018-04-09T10:18:06.226Z,95026.95
2018-04-09T10:20:32.602Z,95025.04
2018-04-09T10:22:58.958Z,95023.39
2018-04-09T10:25:25.296Z,95021.36
2018-04-09T10:27:51.656Z,95019.27
2018-04-09T10:30:18.011Z,95013.84
2018-04-09T10:32:44.345Z,95007.28
2018-04-09T10:35:10.745Z,95009.50
2018-04-09T10:37:37.076Z,95015.77
2018-04-09T10:40:03.416Z,95005.44
2018-04-09T10:42:29.821Z,95004.05
2018-04-09T10:44:56.159Z,95002.23
2018-04-09T10:47:22.621Z,95003.88
2018-04-09T10:49:48.945Z,94996.25
2018-04-09T10:52:15.308Z,95001.41
2018-04-09T10:54:41.646Z,94991.72
2018-04-09T10:57:07.962Z,94995.78
2018-04-09T10:59:34.301Z,94990.27
2018-04-09T11:02:00.661Z,94990.11
2018-04-09T11:04:27.016Z,94986.91
2018-04-09T11:06:53.379Z,94984.23
2018-04-09T11:09:19.794Z,94977.06
2018-04-09T11:11:46.195Z,94979.13
2018-04-09T11:14:12.595Z,94967.10
2018-04-09T11:16:38.918Z,94955.39
2018-04-09T11:19:05.226Z,94955.02
2018-04-09T11:21:31.625Z,94951.27
2018-04-09T11:23:57.990Z,94946.98
2018-04-09T11:26:24.308Z,94945.12
2018-04-09T11:28:50.866Z,94942.45
2018-04-09T11:31:17.189Z,94945.12
2018-04-09T11:33:43.571Z,94936.81
2018-04-09T11:36:09.934Z,94938.88
2018-04-09T11:38:36.389Z,94937.59
2018-04-09T11:41:02.782Z,94928.09
2018-04-09T11:43:29.181Z,94923.10
2018-04-09T11:45:55.496Z,94913.80
2018-04-09T11:48:21.960Z,94919.32
2018-04-09T11:50:48.324Z,94914.64
2018-04-09T11:53:14.692Z,94905.20
2018-04-09T11:55:41.052Z,94909.22
2018-04-09T11:58:07.413Z,94904.23
2018-04-09T12:00:33.866Z,94900.31
2018-04-09T12:03:00.263Z,94894.55
2018-04-09T12:05:26.624Z,94888.09
2018-04-09T12:07:52.975Z,94879.53
2018-04-09T12:10:19.357Z,94880.78
2018-04-09T12:12:45.715Z,94876.33
2018-04-09T12:15:12.083Z,94862.22
2018-04-09T12:17:38.439Z,94867.32
2018-04-09T12:20:04.792Z,94854.66
2018-04-09T12:22:31.255Z,94845.78
2018-04-09T12:24:57.608Z,94839.13
2018-04-09T12:27:23.980Z,94844.34
2018-04-09T12:29:50.293Z,94837.72
2018-04-09T12:32:16.650Z,94835.05
2018-04-09T12:34:43.008Z,94836.61
2018-04-09T12:37:09.390Z,94827.80
2018-04-09T12:39:35.721Z,94827.25
2018-04-09T12:42:02.056Z,94819.66
2018-04-09T12:44:28.439Z,94827.25
2018-04-09T12:46:54.821Z,94821.83
2018-04-09T12:49:21.159Z,94818.36
2018-04-09T12:51:47.538Z,94820.06
2018-04-09T12:54:13.980Z,94829.52
2018-04-09T12:56:40.404Z,94809.12
2018-04-09T12:59:06.711Z,94810.02
2018-04-09T13:01:33.076Z,94817.76
2018-04-09T13:03:59.443Z,94817.91
2018-04-09T13:06:25.765Z,94816.94
2018-04-09T13:08:52.080Z,94808.52
2018-04-09T13:11:18.445Z,94809.14
2018-04-09T13:13:44.773Z,94798.26
2018-04-09T13:16:11.211Z,94804.09
2018-04-09T13:18:37.580Z,94801.05
2018-04-09T13:21:03.974Z,94795.47
2018-04-09T13:23:30.341Z,94791.60
2018-04-09T13:25:56.788Z,94786.73
2018-04-09T13:28:23.108Z,94785.50
2018-04-09T13:30:50.556Z,94790.31
2018-04-09T13:33:17.008Z,94795.42
2018-04-09T13:35:43.499Z,94794.19
2018-04-09T13:38:09.794Z,94791.60
2018-04-09T13:40:36.182Z,94784.22
2018-04-09T13:43:02.515Z,94791.08
2018-04-09T13:45:28.889Z,94779.67
2018-04-09T13:47:55.328Z,94785.41
2018-04-09T13:50:21.712Z,94773.28
2018-04-09T13:52:48.089Z,94768.84
2018-04-09T13:55:14.414Z,94768.17
2018-04-09T13:57:40.876Z,94752.31
2018-04-09T14:00:07.246Z,94761.20
2018-04-09T14:02:33.568Z,94748.70
2018-04-09T14:04:59.884Z,94755.42
2018-04-09T14:07:26.295Z,94751.41
2018-04-09T14:09:52.696Z,94752.28
2018-04-09T14:12:19.039Z,94751.41
2018-04-09T14:14:45.421Z,94748.56
2018-04-09T14:17:11.801Z,94746.66
2018-04-09T14:19:38.173Z,94745.58
2018-04-09T14:22:04.496Z,94744.11
2018-04-09T14:24:30.877Z,94747.48
2018-04-09T14:26:57.199Z,94748.30
2018-04-09T14:29:23.610Z,94739.73
2018-04-09T14:31:49.976Z,94741.30
2018-04-09T14:34:16.339Z,94741.23
2018-04-09T14:36:42.671Z,94750.79
2018-04-09T14:39:08.998Z,94737.62
2018-04-09T14:41:35.407Z,94737.22
2018-04-09T14:44:01.834Z,94741.80
2018-04-09T14:46:28.201Z,94748.36
2018-04-09T14:48:54.550Z,94743.55
2018-04-09T14:51:21.007Z,94741.03
2018-04-09T14:53:47.356Z,94743.96
2018-04-09T14:56:13.732Z,94736.22
2018-04-09T14:58:40.076Z,94741.30
2018-04-09T15:01:06.434Z,94738.09
2018-04-09T15:03:32.798Z,94729.30
2018-04-09T15:05:59.172Z,94727.34
2018-04-09T15:08:25.536Z,94725.28
2018-04-09T15:10:51.892Z,94726.11
2018-04-09T15:13:18.224Z,94726.78
2018-04-09T15:15:44.588Z,94735.08
2018-04-09T15:18:11.002Z,94734.25
2018-04-09T15:20:37.333Z,94730.70
2018-04-09T15:23:03.678Z,94726.89
2018-04-09T15:25:30.034Z,94737.09
2018-04-09T15:27:56.357Z,94730.12
2018-04-09T15:30:22.691Z,94735.52
2018-04-09T15:32:49.018Z,94728.27
2018-04-09T15:35:15.343Z,94731.53
2018-04-09T15:37:41.731Z,94731.12
2018-04-09T15:40:08.054Z,94735.66
2018-04-09T15:42:34.437Z,94733.58
2018-04-09T15:45:00.765Z,94741.58
2018-04-09T15:47:27.090Z,94738.80
2018-04-09T15:49:53.419Z,94741.73
2018-04-09T15:52:19.769Z,94737.36
2018-04-09T15:54:46.089Z,94741.23
2018-04-09T15:57:12.426Z,94743.39
2018-04-09T15:59:38.779Z,94734.02
2018-04-09T16:02:05.133Z,94731.38
2018-04-09T16:04:31.459Z,94726.95
2018-04-09T16:06:57.772Z,94724.48
2018-04-09T16:09:24.147Z,94721.91
2018-04-09T16:11:50.596Z,94720.62
2018-04-09T16:14:17.011Z,94732.72
2018-04-09T16:16:43.432Z,94725.40
2018-04-09T16:19:09.794Z,94720.97
2018-04-09T16:21:36.146Z,94723.41
2018-04-09T16:24:02.496Z,94731.61
2018-04-09T16:26:28.863Z,94732.75
2018-04-09T16:28:55.232Z,94725.95
2018-04-09T16:31:21.652Z,94736.56
2018-04-09T16:33:48.037Z,94739.70
2018-04-09T16:36:14.367Z,94736.70
2018-04-09T16:38:40.681Z,94739.55
2018-04-09T16:41:07.003Z,94737.30
2018-04-09T16:43:33.399Z,94736.70
2018-04-09T16:45:59.869Z,94726.24
2018-04-09T16:48:26.185Z,94737.12
2018-04-09T16:50:52.563Z,94735.73
2018-04-09T16:53:18.917Z,94733.37
2018-04-09T16:55:45.289Z,94736.88
2018-04-09T16:58:11.682Z,94735.85
2018-04-09T17:00:39.107Z,94732.39
2018-04-09T17:03:05.432Z,94737.03
2018-04-09T17:05:31.802Z,94743.94
2018-04-09T17:07:58.135Z,94746.88
2018-04-09T17:10:24.447Z,94750.54
2018-04-09T17:12:50.906Z,94759.38
2018-04-09T17:15:17.259Z,94757.45
2018-04-09T17:17:43.676Z,94762.25
2018-04-09T17:20:10.065Z,94763.81
2018-04-09T17:22:36.386Z,94752.34
2018-04-09T17:25:02.726Z,94763.48
2018-04-09T17:27:29.052Z,94770.92
2018-04-09T17:29:55.378Z,94777.31
2018-04-09T17:32:21.727Z,94774.99
2018-04-09T17:34:48.091Z,94781.18
2018-04-09T17:37:14.444Z,94780.56
2018-04-09T17:39:40.785Z,94774.11
2018-04-09T17:42:07.163Z,94786.86
2018-04-09T17:44:33.497Z,94781.38
2018-04-09T17:46:59.824Z,94786.70
2018-04-09T17:49:26.159Z,94777.58
2018-04-09T17:51:52.536Z,94786.19
2018-04-09T17:54:18.849Z,94784.55
2018-04-09T17:56:45.225Z,94786.39
2018-04-09T17:59:11.649Z,94782.83
2018-04-09T18:01:38.027Z,94795.00
2018-04-09T18:04:04.388Z,94794.65
2018-04-09T18:06:30.719Z,94799.59
2018-04-09T18:08:57.036Z,94798.57
2018-04-09T18:11:23.360Z,94797.42
2018-04-09T18:13:49.670Z,94794.95
2018-04-09T18:16:16.116Z,94796.97
2018-04-09T18:18:42.447Z,94801.81
2018-04-09T18:21:08.828Z,94814.59
2018-04-09T18:23:35.202Z,94813.47
2018-04-09T18:26:01.715Z,94816.61
2018-04-09T18:28:28.051Z,94817.90
2018-04-09T18:30:54.460Z,94811.14
2018-04-09T18:33:20.803Z,94826.70
2018-04-09T18:35:47.141Z,94827.44
2018-04-09T18:38:13.479Z,94835.59
2018-04-09T18:40:39.843Z,94841.16
2018-04-09T18:43:06.244Z,94834.03
2018-04-09T18:45:32.575Z,94832.39
2018-04-09T18:47:58.888Z,94835.78
2018-04-09T18:50:25.210Z,94844.70
2018-04-09T18:52:51.645Z,94841.61
2018-04-09T18:55:17.974Z,94843.42
2018-04-09T18:57:44.315Z,94842.11
2018-04-09T19:00:10.799Z,94840.41
2018-04-09T19:02:37.155Z,94855.63
2018-04-09T19:05:03.511Z,94852.53
2018-04-09T19:07:29.951Z,94857.17
2018-04-09T19:09:56.275Z,94850.05
2018-04-09T19:12:22.691Z,94860.32
2018-04-09T19:14:49.022Z,94859.89
2018-04-09T19:17:15.371Z,94857.89
2018-04-09T19:19:41.780Z,94860.52
2018-04-09T19:22:08.130Z,94862.00
2018-04-09T19:24:34.442Z,94871.08
2018-04-09T19:27:00.776Z,94872.89
2018-04-09T19:29:27.168Z,94879.27
2018-04-09T19:31:53.689Z,94879.80
2018-04-09T19:34:20.012Z,94871.91
2018-04-09T19:36:46.342Z,94873.74
2018-04-09T19:39:13.668Z,94870.40
2018-04-09T19:44:11.438Z,94868.89
2018-04-09T19:46:37.805Z,94880.95
2018-04-09T19:49:04.169Z,94867.71
2018-04-09T19:51:30.530Z,94880.90
2018-04-09T19:53:56.964Z,94870.76
2018-04-09T19:56:23.358Z,94858.17
2018-04-09T19:58:49.758Z,94861.84
2018-04-09T20:01:16.166Z,94866.27
2018-04-09T20:03:42.630Z,94866.64
2018-04-09T20:06:09.055Z,94865.33
2018-04-09T20:08:35.477Z,94871.58
2018-04-09T20:11:02.000Z,94870.48
2018-04-09T20:13:28.366Z,94873.98
2018-04-09T20:15:54.728Z,94874.81
2018-04-09T20:18:21.106Z,94864.04
2018-04-09T20:20:47.467Z,94873.66
2018-04-09T20:23:13.879Z,94873.11
2018-04-09T20:25:40.277Z,94875.83
2018-04-09T20:28:06.644Z,94872.09
2018-04-09T20:30:33.076Z,94877.12
2018-04-09T20:32:59.480Z,94868.89
2018-04-09T20:35:25.889Z,94871.69
2018-04-09T20:37:52.264Z,94866.84
2018-04-09T20:40:18.710Z,94873.66
2018-04-09T20:42:45.075Z,94868.78
2018-04-09T20:45:11.522Z,94876.07
2018-04-09T20:47:37.934Z,94869.77
2018-04-09T20:50:04.352Z,94874.05
2018-04-09T20:52:30.722Z,94875.42
2018-04-09T20:54:57.098Z,94873.58
2018-04-09T20:57:23.507Z,94869.72
2018-04-09T20:59:49.874Z,94875.06
2018-04-09T21:02:16.262Z,94865.66
2018-04-09T21:04:42.723Z,94869.49
2018-04-09T21:07:09.106Z,94858.45
2018-04-09T21:09:35.513Z,94851.59
2018-04-09T21:12:01.897Z,94848.09
2018-04-09T21:14:28.264Z,94850.15
2018-04-09T21:16:54.630Z,94850.80
2018-04-09T21:19:21.144Z,94851.55
2018-04-09T21:21:47.595Z,94840.80
2018-04-09T21:24:13.979Z,94838.30
2018-04-09T21:26:40.430Z,94833.07
2018-04-09T21:29:06.848Z,94842.56
2018-04-09T21:31:33.282Z,94852.61
2018-04-09T21:33:59.683Z,94853.16
2018-04-09T21:36:26.079Z,94849.73
2018-04-09T21:38:52.514Z,94852.53
2018-04-09T21:41:18.880Z,94866.40
2018-04-09T21:43:45.273Z,94866.56
2018-04-09T21:46:11.702Z,94858.91
2018-04-09T21:48:38.082Z,94863.57
2018-04-09T21:51:04.551Z,94859.05
2018-04-09T21:53:31.085Z,94864.37
2018-04-09T21:55:57.458Z,94864.31
2018-04-09T21:58:23.882Z,94864.23
2018-04-09T22:00:50.322Z,94857.54
2018-04-09T22:03:16.822Z,94863.84
2018-04-09T22:05:43.263Z,94863.31
2018-04-09T22:08:09.743Z,94855.59
2018-04-09T22:10:36.157Z,94849.94
2018-04-09T22:13:02.615Z,94853.02
2018-04-09T22:15:29.041Z,94849.47
2018-04-09T22:17:55.436Z,94855.48
2018-04-09T22:20:21.812Z,94860.93
2018-04-09T22:22:48.196Z,94865.18
2018-04-09T22:25:14.618Z,94858.24
2018-04-09T22:27:41.129Z,94855.42
2018-04-09T22:30:07.537Z,94857.36
2018-04-09T22:32:33.919Z,94862.03
2018-04-09T22:35:00.352Z,94859.97
2018-04-09T22:37:26.763Z,94864.27
2018-04-09T22:39:53.258Z,94861.23
2018-04-09T22:42:19.903Z,94856.92
2018-04-09T22:44:46.386Z,94857.61
2018-04-09T22:47:12.746Z,94865.01
2018-04-09T22:49:39.194Z,94859.09
2018-04-09T22:52:05.570Z,94827.16
2018-04-09T22:54:32.248Z,94844.92
2018-04-09T22:56:58.617Z,94849.83
2018-04-09T22:59:24.982Z,94849.61
2018-04-09T23:01:51.396Z,94850.01
2018-04-09T23:04:17.841Z,94854.18
2018-04-09T23:06:44.220Z,94843.30
2018-04-09T23:09:10.603Z,94842.48
2018-04-09T23:11:37.021Z,94844.47
2018-04-09T23:14:03.395Z,94843.41
2018-04-09T23:16:29.815Z,94844.47
2018-04-09T23:18:56.194Z,94841.84
2018-04-09T23:21:22.571Z,94835.19
2018-04-09T23:23:48.959Z,94841.73
2018-04-09T23:26:15.434Z,94840.85
2018-04-09T23:28:41.915Z,94840.53
2018-04-09T23:31:08.281Z,94845.81
2018-04-09T23:33:34.657Z,94850.42
2018-04-09T23:36:00.978Z,94843.70
2018-04-09T23:38:27.347Z,94855.25
2018-04-09T23:40:53.714Z,94850.79
2018-04-09T23:43:20.041Z,94853.86
2018-04-09T23:45:46.501Z,94850.34
2018-04-09T23:48:12.834Z,94854.38
2018-04-09T23:50:39.245Z,94850.30
2018-04-09T23:53:05.604Z,94852.09
2018-04-09T23:55:31.972Z,94853.74
2018-04-09T23:57:58.327Z,94850.66
